createdAt,value
2018-12-31T00:00:35.582Z,99.99
2018-12-31T00:01:16.186Z,99.99
2018-12-31T00:01:56.491Z,99.99
2018-12-31T00:02:36.925Z,99.99
2018-12-31T00:03:17.288Z,99.99
2018-12-31T00:04:04.363Z,99.99
2018-12-31T00:04:45.181Z,99.99
2018-12-31T00:05:26.549Z,99.99
2018-12-31T00:06:06.875Z,99.99
2018-12-31T00:06:47.446Z,99.99
2018-12-31T00:07:27.748Z,99.99
2018-12-31T00:08:08.664Z,99.99
2018-12-31T00:08:48.831Z,99.99
2018-12-31T00:09:29.213Z,99.99
2018-12-31T00:10:09.645Z,99.99
2018-12-31T00:10:53.355Z,99.99
2018-12-31T00:11:34.729Z,99.99
2018-12-31T00:12:15.028Z,99.99
2018-12-31T00:12:55.470Z,99.99
2018-12-31T00:13:35.847Z,99.99
2018-12-31T00:14:16.237Z,99.99
2018-12-31T00:14:58.503Z,99.99
2018-12-31T00:15:38.931Z,99.99
2018-12-31T00:16:20.237Z,99.99
2018-12-31T00:17:00.672Z,99.99
2018-12-31T00:17:41.329Z,99.99
2018-12-31T00:18:21.787Z,99.99
2018-12-31T00:19:02.107Z,99.99
2018-12-31T00:19:45.343Z,99.99
2018-12-31T00:20:26.610Z,99.99
2018-12-31T00:21:07.309Z,99.99
2018-12-31T00:21:47.664Z,99.99
2018-12-31T00:22:28.053Z,99.99
2018-12-31T00:24:46.749Z,99.99
2018-12-31T00:25:27.189Z,99.99
2018-12-31T00:26:07.609Z,99.99
2018-12-31T00:26:49.122Z,99.99
2018-12-31T00:27:29.423Z,99.99
2018-12-31T00:28:10.377Z,99.99
2018-12-31T00:28:50.749Z,99.99
2018-12-31T00:29:31.085Z,99.99
2018-12-31T00:30:11.908Z,99.99
2018-12-31T00:30:52.173Z,99.99
2018-12-31T00:31:33.759Z,99.99
2018-12-31T00:32:15.107Z,99.99
2018-12-31T00:32:55.547Z,99.99
2018-12-31T00:33:35.955Z,99.99
2018-12-31T00:34:16.448Z,99.99
2018-12-31T00:34:56.884Z,99.99
2018-12-31T00:35:37.395Z,99.99
2018-12-31T00:36:17.940Z,99.99
2018-12-31T00:37:01.187Z,99.99
2018-12-31T00:37:41.593Z,99.99
2018-12-31T00:38:23.750Z,99.99
2018-12-31T00:39:04.157Z,99.99
2018-12-31T00:39:48.050Z,99.99
2018-12-31T00:40:28.444Z,99.99
2018-12-31T08:16:20.051Z,99.99
2018-12-31T08:17:03.583Z,99.99
2018-12-31T08:17:44.028Z,99.99
2018-12-31T08:18:24.407Z,99.99
2018-12-31T08:19:04.822Z,99.99
2018-12-31T08:19:45.230Z,99.99
2018-12-31T08:20:25.643Z,99.99
2018-12-31T08:21:06.064Z,99.99
2018-12-31T08:21:46.437Z,99.99
2018-12-31T08:22:27.031Z,99.99
2018-12-31T08:23:07.374Z,99.99
2018-12-31T08:23:47.750Z,99.99
2018-12-31T08:24:28.120Z,99.99
2018-12-31T08:25:08.518Z,99.99
2018-12-31T08:25:49.566Z,99.99
2018-12-31T08:26:31.513Z,99.99
2018-12-31T08:27:11.836Z,99.99
2018-12-31T08:27:52.217Z,99.99
2018-12-31T08:28:32.659Z,99.99
2018-12-31T08:29:13.180Z,99.99
2018-12-31T08:29:53.595Z,99.99
2018-12-31T08:30:33.976Z,99.99
2018-12-31T08:31:15.659Z,99.99
2018-12-31T08:31:56.211Z,99.99
2018-12-31T08:32:36.583Z,99.99
2018-12-31T08:33:16.971Z,99.99
2018-12-31T08:33:57.360Z,99.99
2018-12-31T08:34:38.524Z,99.99
2018-12-31T08:35:18.871Z,99.99
2018-12-31T08:35:59.221Z,99.99
2018-12-31T08:36:39.658Z,99.99
2018-12-31T08:37:23.616Z,99.99
2018-12-31T08:38:03.864Z,99.99
2018-12-31T08:38:44.245Z,99.99
2018-12-31T08:39:24.624Z,99.99
2018-12-31T08:40:05.028Z,99.99
2018-12-31T08:40:45.394Z,99.99
2018-12-31T08:41:25.792Z,99.99
2018-12-31T08:42:06.203Z,99.99
2018-12-31T11:13:53.994Z,99.99
2018-12-31T11:14:35.097Z,99.99
2018-12-31T11:15:15.579Z,99.99
2018-12-31T11:15:56.697Z,99.99
2018-12-31T11:16:37.124Z,99.99
2018-12-31T11:17:17.524Z,99.99
2018-12-31T11:17:57.933Z,99.99
2018-12-31T11:18:41.731Z,99.99
2018-12-31T11:19:22.083Z,99.99
2018-12-31T11:20:02.506Z,99.99
2018-12-31T11:20:42.893Z,99.99
2018-12-31T11:21:23.346Z,99.99
2018-12-31T11:22:03.686Z,99.99
2018-12-31T11:22:44.107Z,99.99
2018-12-31T11:23:25.595Z,99.99
2018-12-31T11:24:05.928Z,99.99
2018-12-31T11:24:46.337Z,99.99
2018-12-31T11:25:26.719Z,99.99
2018-12-31T11:26:07.095Z,99.99
2018-12-31T11:26:47.490Z,99.99
2018-12-31T11:27:27.966Z,99.99
2018-12-31T11:28:08.700Z,99.99
2018-12-31T11:28:49.119Z,99.99
2018-12-31T11:29:29.547Z,99.99
2018-12-31T11:30:09.969Z,99.99
2018-12-31T11:30:51.686Z,99.99
2018-12-31T11:31:31.434Z,99.99
2018-12-31T11:32:12.745Z,99.99
2018-12-31T11:32:54.554Z,99.99
2018-12-31T11:33:34.957Z,99.99
2018-12-31T11:34:15.327Z,99.99
2018-12-31T11:34:55.731Z,99.99
2018-12-31T11:35:36.146Z,99.99
2018-12-31T11:36:16.523Z,99.99
2018-12-31T11:36:58.717Z,99.99
2018-12-31T11:37:41.348Z,99.99
2018-12-31T11:38:23.531Z,99.99
2018-12-31T11:39:04.094Z,99.99
2018-12-31T11:39:44.624Z,99.99
2018-12-31T11:40:25.059Z,99.99
2018-12-31T11:41:05.754Z,99.99
2018-12-31T11:41:46.098Z,99.99
2018-12-31T11:42:26.463Z,99.99
2018-12-31T11:43:07.841Z,99.99
2018-12-31T11:43:48.228Z,99.99
2018-12-31T11:44:28.667Z,99.99
2018-12-31T11:45:09.102Z,99.99
2018-12-31T11:45:49.475Z,99.99
2018-12-31T11:46:29.923Z,99.99
2018-12-31T11:47:10.816Z,99.99
2018-12-31T11:47:52.553Z,99.38
2018-12-31T11:48:32.923Z,99.62
2018-12-31T11:49:13.334Z,99.62
2018-12-31T11:49:53.741Z,99.99
2018-12-31T11:50:34.128Z,99.04
2018-12-31T11:51:14.484Z,99.14
2018-12-31T11:51:54.868Z,99.99
2018-12-31T11:52:35.241Z,99.43
2018-12-31T11:53:15.643Z,99.8
2018-12-31T11:53:56.086Z,99.9
2018-12-31T11:54:36.434Z,99.99
2018-12-31T11:55:16.820Z,99.99
2018-12-31T11:55:57.205Z,99.99
2018-12-31T11:56:37.606Z,99.99
2018-12-31T11:57:18.015Z,99.8
2018-12-31T11:57:58.360Z,99.9
2018-12-31T11:58:38.762Z,99.99
2018-12-31T11:59:19.179Z,99.9
2018-12-31T11:59:59.559Z,99.99
2018-12-31T12:00:40.987Z,99.9
2018-12-31T12:01:21.259Z,99.99
2018-12-31T12:02:01.645Z,99.99
2018-12-31T12:02:42.051Z,99.99
2018-12-31T12:03:22.479Z,99.99
2018-12-31T12:04:02.829Z,99.99
2018-12-31T12:04:43.239Z,99.33
2018-12-31T12:05:23.616Z,99.14
2018-12-31T12:06:04.001Z,99.33
2018-12-31T12:06:44.431Z,99.99
2018-12-31T12:07:24.826Z,99.33
2018-12-31T12:08:08.100Z,99.99
2018-12-31T12:08:48.076Z,99.62
2018-12-31T12:09:29.856Z,99.99
2018-12-31T12:10:10.138Z,99.23
2018-12-31T12:10:50.570Z,99.8
2018-12-31T12:11:31.786Z,99.04
2018-12-31T12:12:12.199Z,99.99
2018-12-31T12:12:52.646Z,98.94
2018-12-31T12:13:34.837Z,99.14
2018-12-31T12:14:15.186Z,99.33
2018-12-31T12:14:55.633Z,99.14
2018-12-31T12:15:35.990Z,99.04
2018-12-31T12:16:16.440Z,99.23
2018-12-31T12:16:58.387Z,99.43
2018-12-31T12:17:38.751Z,99.23
2018-12-31T12:18:19.144Z,99.14
2018-12-31T12:18:59.590Z,99.62
2018-12-31T12:19:39.934Z,99.8
2018-12-31T12:20:20.330Z,99.14
2018-12-31T12:21:00.716Z,99.33
2018-12-31T12:21:41.135Z,99.43
2018-12-31T12:22:21.512Z,99.14
2018-12-31T12:23:01.935Z,99.04
2018-12-31T12:23:42.285Z,98.75
2018-12-31T12:24:22.700Z,99.19
2018-12-31T12:25:03.088Z,99.33
2018-12-31T12:25:43.487Z,98.37
2018-12-31T12:26:23.890Z,98.66
2018-12-31T12:27:04.302Z,98.57
2018-12-31T12:27:44.691Z,98.99
2018-12-31T12:28:25.087Z,99.04
2018-12-31T12:29:05.493Z,99.14
2018-12-31T12:29:45.921Z,98.75
2018-12-31T12:30:26.460Z,98.18
2018-12-31T12:31:06.798Z,98.47
2018-12-31T12:31:47.149Z,97.8
2018-12-31T12:32:29.350Z,97.8
2018-12-31T12:33:09.911Z,97.85
2018-12-31T12:33:50.431Z,98.13
2018-12-31T12:34:30.778Z,97.28
2018-12-31T12:35:11.968Z,97.08
2018-12-31T12:35:52.271Z,97.18
2018-12-31T12:36:32.629Z,96.84
2018-12-31T12:37:13.092Z,97.56
2018-12-31T12:37:53.450Z,97.23
2018-12-31T12:38:33.869Z,97.56
2018-12-31T12:39:14.269Z,96.75
2018-12-31T12:39:54.693Z,96.89
2018-12-31T12:40:35.128Z,97.8
2018-12-31T12:41:15.540Z,97.8
2018-12-31T12:41:55.963Z,97.8
2018-12-31T12:42:36.303Z,98.13
2018-12-31T12:43:16.728Z,97.85
2018-12-31T12:43:57.143Z,97.37
2018-12-31T12:44:37.584Z,96.89
2018-12-31T12:45:17.981Z,97.37
2018-12-31T12:45:58.382Z,96.7
2018-12-31T12:46:38.779Z,96.8
2018-12-31T12:47:19.200Z,96.32
2018-12-31T12:47:59.620Z,96.42
2018-12-31T12:48:41.879Z,95.36
2018-12-31T12:49:22.347Z,95.46
2018-12-31T12:50:02.735Z,96.32
2018-12-31T12:50:43.437Z,96.51
2018-12-31T12:51:23.862Z,96.22
2018-12-31T12:52:04.277Z,96.61
2018-12-31T12:52:44.681Z,95.27
2018-12-31T12:53:25.048Z,96.32
2018-12-31T12:54:05.455Z,95.36
2018-12-31T12:54:47.006Z,95.65
2018-12-31T12:55:27.442Z,95.84
2018-12-31T12:56:07.817Z,95.56
2018-12-31T12:56:48.227Z,95.46
2018-12-31T12:57:28.622Z,95.46
2018-12-31T12:58:09.051Z,95.84
2018-12-31T12:58:49.484Z,95.56
2018-12-31T12:59:29.920Z,95.46
2018-12-31T13:00:10.295Z,95.27
2018-12-31T13:00:50.748Z,95.46
2018-12-31T13:01:31.161Z,95.56
2018-12-31T13:02:11.554Z,95.17
2018-12-31T13:02:51.942Z,95.36
2018-12-31T13:03:32.345Z,95.65
2018-12-31T13:04:12.768Z,95.36
2018-12-31T13:04:53.122Z,95.56
2018-12-31T13:05:34.407Z,95.84
2018-12-31T13:06:14.815Z,95.94
2018-12-31T13:06:55.191Z,95.84
2018-12-31T13:07:35.568Z,95.84
2018-12-31T13:08:15.983Z,95.46
2018-12-31T13:08:56.384Z,95.46
2018-12-31T13:09:38.498Z,96.13
2018-12-31T13:10:18.868Z,96.13
2018-12-31T13:10:59.363Z,96.03
2018-12-31T13:11:39.729Z,95.46
2018-12-31T13:12:20.087Z,95.65
2018-12-31T13:13:00.486Z,95.65
2018-12-31T13:13:40.906Z,95.36
2018-12-31T13:14:21.337Z,96.51
2018-12-31T13:15:01.717Z,96.61
2018-12-31T13:15:42.177Z,96.7
2018-12-31T13:16:22.590Z,96.32
2018-12-31T13:17:02.983Z,95.36
2018-12-31T13:17:43.453Z,95.65
2018-12-31T13:18:23.857Z,96.03
2018-12-31T13:19:04.232Z,96.03
2018-12-31T13:19:44.635Z,95.84
2018-12-31T13:20:24.970Z,95.84
2018-12-31T13:21:05.325Z,95.46
2018-12-31T13:21:45.743Z,95.65
2018-12-31T13:22:26.131Z,95.56
2018-12-31T13:23:06.489Z,96.7
2018-12-31T13:23:46.892Z,95.56
2018-12-31T13:24:27.269Z,96.7
2018-12-31T13:25:07.830Z,96.51
2018-12-31T13:25:48.223Z,96.22
2018-12-31T13:26:28.668Z,96.22
2018-12-31T13:27:09.089Z,96.51
2018-12-31T13:27:49.490Z,96.51
2018-12-31T13:28:29.893Z,96.61
2018-12-31T13:29:10.310Z,96.51
2018-12-31T13:29:50.645Z,96.8
2018-12-31T13:30:31.062Z,97.28
2018-12-31T13:31:11.466Z,97.13
2018-12-31T13:31:51.883Z,97.13
2018-12-31T13:32:32.302Z,97.28
2018-12-31T13:33:12.706Z,97.08
2018-12-31T13:33:53.134Z,97.37
2018-12-31T13:34:33.555Z,97.13
2018-12-31T13:35:13.926Z,97.08
2018-12-31T13:35:54.348Z,97.18
2018-12-31T13:36:34.777Z,97.28
2018-12-31T13:37:15.139Z,97.28
2018-12-31T13:37:55.526Z,97.08
2018-12-31T13:38:35.937Z,96.32
2018-12-31T13:39:16.367Z,96.51
2018-12-31T13:39:56.776Z,96.51
2018-12-31T13:40:37.127Z,95.36
2018-12-31T13:41:17.555Z,95.56
2018-12-31T13:41:57.967Z,95.27
2018-12-31T13:42:38.344Z,96.51
2018-12-31T13:43:18.730Z,96.8
2018-12-31T13:43:59.156Z,96.89
2018-12-31T13:44:39.559Z,97.08
2018-12-31T13:45:19.986Z,96.03
2018-12-31T13:46:00.354Z,96.51
2018-12-31T13:46:40.725Z,96.7
2018-12-31T13:47:21.154Z,97.18
2018-12-31T13:48:01.548Z,96.89
2018-12-31T13:48:41.956Z,96.89
2018-12-31T13:49:22.335Z,96.22
2018-12-31T13:50:02.768Z,96.61
2018-12-31T13:50:43.186Z,95.94
2018-12-31T13:51:23.566Z,95.46
2018-12-31T13:52:03.952Z,95.17
2018-12-31T13:52:44.371Z,94.98
2018-12-31T13:53:24.729Z,94.89
2018-12-31T13:54:05.158Z,94.6
2018-12-31T13:54:45.584Z,94.46
2018-12-31T13:55:25.981Z,94.74
2018-12-31T13:56:06.363Z,93.5
2018-12-31T13:56:46.760Z,93.6
2018-12-31T13:57:27.169Z,93.31
2018-12-31T13:58:07.527Z,93.12
2018-12-31T13:58:47.947Z,93.4
2018-12-31T13:59:28.339Z,93.21
2018-12-31T14:00:08.756Z,93.12
2018-12-31T14:00:49.233Z,93.02
2018-12-31T14:01:29.554Z,92.45
2018-12-31T14:02:10.710Z,93.26
2018-12-31T14:02:51.686Z,93.79
2018-12-31T14:03:31.388Z,93.4
2018-12-31T14:15:53.872Z,93.45
2018-12-31T14:16:34.278Z,93.93
2018-12-31T14:17:14.670Z,94.51
2018-12-31T14:17:55.066Z,94.41
2018-12-31T14:18:35.512Z,94.41
2018-12-31T14:19:15.872Z,93.93
2018-12-31T14:19:56.258Z,94.7
2018-12-31T14:20:36.683Z,95.17
2018-12-31T14:21:17.069Z,95.17
2018-12-31T14:21:57.454Z,94.7
2018-12-31T14:22:37.840Z,94.98
2018-12-31T14:23:18.236Z,94.89
2018-12-31T14:23:58.646Z,94.7
2018-12-31T14:24:39.036Z,95.65
2018-12-31T14:25:19.423Z,95.17
2018-12-31T14:25:59.821Z,95.07
2018-12-31T14:26:40.208Z,94.98
2018-12-31T14:27:20.634Z,94.7
2018-12-31T14:28:01.026Z,95.56
2018-12-31T14:28:41.453Z,95.46
2018-12-31T14:29:21.821Z,94.98
2018-12-31T14:30:02.230Z,94.98
2018-12-31T14:30:42.628Z,95.07
2018-12-31T14:31:23.015Z,94.89
2018-12-31T14:32:03.419Z,95.65
2018-12-31T14:32:43.823Z,95.56
2018-12-31T14:33:24.213Z,95.46
2018-12-31T14:34:04.624Z,95.56
2018-12-31T14:34:44.999Z,95.65
2018-12-31T14:35:25.402Z,95.56
2018-12-31T14:36:05.821Z,95.17
2018-12-31T14:36:46.223Z,95.65
2018-12-31T14:37:26.634Z,95.84
2018-12-31T14:38:07.019Z,94.98
2018-12-31T14:38:47.411Z,94.51
2018-12-31T14:39:27.839Z,94.41
2018-12-31T14:40:08.243Z,94.89
2018-12-31T14:40:48.565Z,94.7
2018-12-31T14:41:29.002Z,94.89
2018-12-31T14:42:09.393Z,95.27
2018-12-31T14:42:49.826Z,95.36
2018-12-31T14:43:30.183Z,95.56
2018-12-31T14:44:10.560Z,95.27
2018-12-31T14:44:50.964Z,94.89
2018-12-31T14:45:31.410Z,94.7
2018-12-31T14:46:11.778Z,95.36
2018-12-31T14:46:52.226Z,94.98
2018-12-31T14:47:32.629Z,95.17
2018-12-31T14:48:13.003Z,94.98
2018-12-31T14:48:53.390Z,94.51
2018-12-31T14:49:33.786Z,94.6
2018-12-31T14:50:14.185Z,95.17
2018-12-31T14:50:54.598Z,95.17
2018-12-31T14:51:35.017Z,94.98
2018-12-31T14:52:15.374Z,95.07
2018-12-31T14:52:55.773Z,95.07
2018-12-31T14:53:36.174Z,95.07
2018-12-31T14:54:16.570Z,94.98
2018-12-31T14:54:56.985Z,95.27
2018-12-31T14:55:37.429Z,94.7
2018-12-31T14:56:17.783Z,94.79
2018-12-31T14:56:58.146Z,94.6
2018-12-31T14:57:38.543Z,94.89
2018-12-31T14:58:18.961Z,94.6
2018-12-31T14:58:59.353Z,94.6
2018-12-31T14:59:39.732Z,94.89
2018-12-31T15:00:20.166Z,94.79
2018-12-31T15:01:00.534Z,94.79
2018-12-31T15:01:40.968Z,94.89
2018-12-31T15:02:21.388Z,94.12
2018-12-31T15:03:01.740Z,94.79
2018-12-31T15:03:42.144Z,94.12
2018-12-31T15:04:22.517Z,93.84
2018-12-31T15:05:02.995Z,93.93
2018-12-31T15:05:43.361Z,94.22
2018-12-31T15:06:23.770Z,94.12
2018-12-31T15:07:04.138Z,93.45
2018-12-31T15:07:44.558Z,93.65
2018-12-31T15:08:24.936Z,93.26
2018-12-31T15:09:05.449Z,93.88
2018-12-31T15:09:45.853Z,92.45
2018-12-31T15:10:26.293Z,93.5
2018-12-31T15:11:06.678Z,93.69
2018-12-31T15:11:47.068Z,93.21
2018-12-31T15:12:27.444Z,93.31
2018-12-31T15:13:07.851Z,92.64
2018-12-31T15:13:48.242Z,92.25
2018-12-31T15:14:28.658Z,92.74
2018-12-31T15:15:09.030Z,92.74
2018-12-31T15:15:49.418Z,92.74
2018-12-31T15:16:29.833Z,92.5
2018-12-31T15:17:10.298Z,93.74
2018-12-31T15:17:50.688Z,93.45
2018-12-31T15:18:31.095Z,93.36
2018-12-31T15:19:11.506Z,93.55
2018-12-31T15:19:51.926Z,93.45
2018-12-31T15:20:32.294Z,93.74
2018-12-31T15:21:12.683Z,93.84
2018-12-31T15:21:53.155Z,94.6
2018-12-31T15:22:33.475Z,94.51
2018-12-31T15:23:13.875Z,94.79
2018-12-31T15:23:54.247Z,94.98
2018-12-31T15:24:34.689Z,94.98
2018-12-31T15:25:15.036Z,94.89
2018-12-31T15:25:55.443Z,94.6
2018-12-31T15:26:35.827Z,94.98
2018-12-31T15:27:16.224Z,94.79
2018-12-31T15:27:56.655Z,95.07
2018-12-31T15:28:37.042Z,94.41
2018-12-31T15:29:17.383Z,94.41
2018-12-31T15:29:57.790Z,94.31
2018-12-31T15:30:38.198Z,94.12
2018-12-31T15:31:18.582Z,94.79
2018-12-31T15:31:58.986Z,94.89
2018-12-31T15:32:39.366Z,94.51
2018-12-31T15:33:19.776Z,94.93
2018-12-31T15:34:00.149Z,95.12
2018-12-31T15:34:40.549Z,95.65
2018-12-31T15:35:20.941Z,95.65
2018-12-31T15:36:01.361Z,95.46
2018-12-31T15:36:41.734Z,95.46
2018-12-31T15:37:22.185Z,95.41
2018-12-31T15:38:02.598Z,95.22
2018-12-31T15:38:43.009Z,95.51
2018-12-31T15:39:23.390Z,95.98
2018-12-31T15:40:03.768Z,95.7
2018-12-31T15:40:44.226Z,96.56
2018-12-31T15:41:24.631Z,96.17
2018-12-31T15:42:05.009Z,96.66
2018-12-31T15:42:45.356Z,96.17
2018-12-31T15:43:25.775Z,96.56
2018-12-31T15:44:06.148Z,95.61
2018-12-31T15:44:46.570Z,95.84
2018-12-31T15:45:26.956Z,95.79
2018-12-31T15:46:07.355Z,95.79
2018-12-31T15:46:47.810Z,96.46
2018-12-31T15:47:28.158Z,96.46
2018-12-31T15:48:08.544Z,96.37
2018-12-31T15:48:48.943Z,96.56
2018-12-31T15:49:29.322Z,96.56
2018-12-31T15:50:09.716Z,96.27
2018-12-31T15:50:50.138Z,96.27
2018-12-31T15:51:30.481Z,96.56
2018-12-31T15:52:10.876Z,96.46
2018-12-31T15:52:51.266Z,96.46
2018-12-31T15:53:31.661Z,96.37
2018-12-31T15:54:12.071Z,96.27
2018-12-31T15:54:52.478Z,95.32
2018-12-31T15:55:32.917Z,95.61
2018-12-31T15:56:13.295Z,95.98
2018-12-31T15:56:53.733Z,96.27
2018-12-31T15:57:34.096Z,97.03
2018-12-31T15:58:14.662Z,96.17
2018-12-31T15:58:55.073Z,96.66
2018-12-31T15:59:35.481Z,96.37
2018-12-31T16:00:15.848Z,96.46
2018-12-31T16:00:56.272Z,95.65
2018-12-31T16:01:36.685Z,95.41
2018-12-31T16:02:17.053Z,95.32
2018-12-31T16:02:57.455Z,95.61
2018-12-31T16:03:37.863Z,95.98
2018-12-31T16:04:18.202Z,95.51
2018-12-31T16:04:58.616Z,95.7
2018-12-31T16:05:39.004Z,96.03
2018-12-31T16:06:19.370Z,95.79
2018-12-31T16:06:59.765Z,95.7
2018-12-31T16:07:45.504Z,95.61
2018-12-31T16:08:20.562Z,95.65
2018-12-31T16:09:01.010Z,95.41
2018-12-31T16:09:41.417Z,95.79
2018-12-31T16:10:21.851Z,95.7
2018-12-31T16:11:02.210Z,95.22
2018-12-31T16:11:42.601Z,96.56
2018-12-31T16:12:23.038Z,95.22
2018-12-31T16:13:03.391Z,95.32
2018-12-31T16:13:43.782Z,95.56
2018-12-31T16:14:24.160Z,95.46
2018-12-31T16:15:04.617Z,95.41
2018-12-31T16:15:46.242Z,95.32
2018-12-31T16:16:25.335Z,95.32
2018-12-31T16:17:05.724Z,95.51
2018-12-31T16:17:46.142Z,95.32
2018-12-31T16:18:26.541Z,96.27
2018-12-31T16:19:06.892Z,96.46
2018-12-31T16:19:47.331Z,96.75
2018-12-31T16:20:27.700Z,97.52
2018-12-31T16:21:08.126Z,97.61
2018-12-31T16:21:48.485Z,97.03
2018-12-31T16:22:28.914Z,97.13
2018-12-31T16:23:09.273Z,97.13
2018-12-31T16:23:49.655Z,97.32
2018-12-31T16:24:30.042Z,96.08
2018-12-31T16:25:10.424Z,96.84
2018-12-31T16:25:50.782Z,96.84
2018-12-31T16:26:31.189Z,97.32
2018-12-31T16:27:11.605Z,96.66
2018-12-31T16:27:51.988Z,97.13
2018-12-31T16:28:32.351Z,97.71
2018-12-31T16:29:12.782Z,97.71
2018-12-31T16:29:53.168Z,96.75
2018-12-31T16:30:33.570Z,97.13
2018-12-31T17:18:48.441Z,99.99
2018-12-31T17:19:28.800Z,99.99
2018-12-31T17:20:09.193Z,99.99
2018-12-31T17:20:49.606Z,99.99
2018-12-31T17:21:29.955Z,99.99
2018-12-31T17:22:10.390Z,99.99
2018-12-31T17:22:50.778Z,99.99
2018-12-31T17:23:31.167Z,99.99
2018-12-31T17:24:11.528Z,99.99
2018-12-31T17:24:51.907Z,99.99
2018-12-31T17:25:32.325Z,99.99
2018-12-31T17:26:12.698Z,99.99
2018-12-31T17:26:53.138Z,99.99
2018-12-31T17:27:33.504Z,99.99
2018-12-31T17:28:13.938Z,99.99
2018-12-31T17:28:54.333Z,99.99
2018-12-31T17:29:34.689Z,99.99
2018-12-31T17:30:15.115Z,99.99
2018-12-31T17:30:55.499Z,99.99
2018-12-31T17:31:35.882Z,99.99
2018-12-31T17:32:16.241Z,99.23
2018-12-31T17:32:56.642Z,99.33
2018-12-31T17:33:37.034Z,99.57
2018-12-31T17:34:17.404Z,98.8
2018-12-31T17:34:57.801Z,98.85
2018-12-31T17:35:38.168Z,98.61
2018-12-31T17:36:18.611Z,99.08
2018-12-31T17:36:58.967Z,99.08
2018-12-31T17:37:39.380Z,99.99
2018-12-31T17:38:19.755Z,99.99
2018-12-31T17:39:00.173Z,99.66
2018-12-31T17:39:40.559Z,99.57
2018-12-31T17:40:20.880Z,99.18
2018-12-31T17:41:01.279Z,99.99
2018-12-31T17:41:41.685Z,99.14
2018-12-31T17:42:22.127Z,98.75
2018-12-31T17:43:02.528Z,98.37
2018-12-31T17:43:42.947Z,97.61
2018-12-31T17:44:23.354Z,97.8
2018-12-31T17:45:03.752Z,97.99
2018-12-31T17:45:44.146Z,97.8
2018-12-31T17:46:24.588Z,98.18
2018-12-31T17:47:05.087Z,97.99
2018-12-31T17:47:45.378Z,97.71
2018-12-31T17:48:25.733Z,98.08
2018-12-31T17:49:06.116Z,97.89
2018-12-31T17:49:46.516Z,98.18
2018-12-31T17:50:26.911Z,98.08
2018-12-31T17:51:07.299Z,98.28
2018-12-31T17:51:55.550Z,98.37
2018-12-31T17:52:28.133Z,97.89
2018-12-31T17:53:08.516Z,98.37
2018-12-31T17:53:48.922Z,98.57
2018-12-31T17:54:29.300Z,97.61
2018-12-31T17:55:09.721Z,97.61
2018-12-31T17:55:50.148Z,98.08
2018-12-31T17:56:30.505Z,97.8
2018-12-31T17:57:10.881Z,98.08
2018-12-31T17:57:51.324Z,97.89
2018-12-31T17:58:31.669Z,97.8
2018-12-31T17:59:12.120Z,97.8
2018-12-31T17:59:52.897Z,96.46
2018-12-31T18:00:33.308Z,97.32
2018-12-31T18:01:13.712Z,96.56
2018-12-31T18:01:54.062Z,97.03
2018-12-31T18:02:34.465Z,96.75
2018-12-31T18:03:14.900Z,96.56
2018-12-31T18:03:55.304Z,96.56
2018-12-31T18:04:35.717Z,96.27
2018-12-31T19:32:09.586Z,96.51
2018-12-31T19:32:50.043Z,96.27
2018-12-31T19:33:30.434Z,95.46
2018-12-31T19:34:10.814Z,95.89
2018-12-31T19:34:51.202Z,95.61
2018-12-31T19:35:31.625Z,95.89
2018-12-31T19:36:11.986Z,95.89
2018-12-31T19:36:52.404Z,95.56
2018-12-31T19:37:32.820Z,95.17
2018-12-31T19:38:13.218Z,95.61
2018-12-31T19:38:53.669Z,95.94
2018-12-31T19:39:34.091Z,95.65
2018-12-31T19:40:14.486Z,95.27
2018-12-31T19:40:54.901Z,96.22
2018-12-31T19:41:35.262Z,96.61
2018-12-31T19:42:15.693Z,96.98
2018-12-31T19:42:56.063Z,97.18
2018-12-31T19:43:36.460Z,96.8
2018-12-31T19:44:16.836Z,96.61
2018-12-31T19:44:57.262Z,96.42
2018-12-31T19:45:37.652Z,95.27
2018-12-31T19:46:18.057Z,96.22
2018-12-31T19:46:58.459Z,95.17
2018-12-31T19:47:38.943Z,95.94
2018-12-31T19:48:19.295Z,96.42
2018-12-31T19:48:59.735Z,96.61
2018-12-31T19:49:40.146Z,94.98
2018-12-31T19:50:20.555Z,96.22
2018-12-31T19:51:00.976Z,96.51
2018-12-31T19:51:41.348Z,96.42
2018-12-31T19:52:21.742Z,96.22
2018-12-31T19:53:02.166Z,96.8
2018-12-31T19:53:42.565Z,96.89
2018-12-31T19:54:22.961Z,96.98
2018-12-31T19:55:03.339Z,96.42
2018-12-31T19:55:43.722Z,96.42
2018-12-31T19:56:24.110Z,96.42
2018-12-31T19:57:04.531Z,96.42
2018-12-31T19:57:44.915Z,96.7
2018-12-31T19:58:26.794Z,96.89
2018-12-31T19:59:05.707Z,97.56
2018-12-31T19:59:46.141Z,96.7
2018-12-31T20:00:26.561Z,96.98
2018-12-31T20:01:06.977Z,96.61
2018-12-31T20:01:47.362Z,96.03
2018-12-31T20:02:27.787Z,96.22
2018-12-31T20:03:08.155Z,96.98
2018-12-31T20:03:48.572Z,96.8
2018-12-31T20:04:28.933Z,97.56
2018-12-31T20:05:09.344Z,97.47
2018-12-31T20:05:49.753Z,97.56
2018-12-31T20:06:30.153Z,98.08
2018-12-31T20:07:10.532Z,97.99
2018-12-31T20:07:50.928Z,97.89
2018-12-31T20:08:31.329Z,98.37
2018-12-31T20:09:11.741Z,98.47
2018-12-31T20:09:52.111Z,98.03
2018-12-31T20:10:32.504Z,98.37
2018-12-31T20:11:12.925Z,98.03
2018-12-31T20:11:53.294Z,97.89
2018-12-31T20:12:33.731Z,97.61
2018-12-31T20:13:14.125Z,97.99
2018-12-31T20:13:54.494Z,98.27
2018-12-31T23:09:51.248Z,99.99
2018-12-31T23:10:31.627Z,99.99
2018-12-31T23:11:12.051Z,99.99
2018-12-31T23:11:52.430Z,99.99
2018-12-31T23:12:32.850Z,99.99
2018-12-31T23:13:14.095Z,99.99
2018-12-31T23:13:54.480Z,99.99
2018-12-31T23:14:34.939Z,99.99
2018-12-31T23:15:15.321Z,99.99
2018-12-31T23:15:55.722Z,99.99
2018-12-31T23:16:36.115Z,99.99
2018-12-31T23:17:16.506Z,99.99
2018-12-31T23:17:56.920Z,99.99
2018-12-31T23:18:37.309Z,99.99
2018-12-31T23:19:17.703Z,99.99
2018-12-31T23:19:58.121Z,99.99
2018-12-31T23:20:38.546Z,99.99
2018-12-31T23:21:18.936Z,99.99
2018-12-31T23:21:59.333Z,99.99
2018-12-31T23:22:39.710Z,99.99
2018-12-31T23:23:20.137Z,99.99
2018-12-31T23:24:00.505Z,99.99
2018-12-31T23:24:40.898Z,99.99
2018-12-31T23:25:21.343Z,99.99
2018-12-31T23:26:01.677Z,99.99
2018-12-31T23:26:42.054Z,99.99
2018-12-31T23:27:22.457Z,99.99
2018-12-31T23:28:02.833Z,99.99
2018-12-31T23:28:43.221Z,99.99
2018-12-31T23:29:23.642Z,99.99
2018-12-31T23:30:03.976Z,99.99
2018-12-31T23:30:44.366Z,99.99
2018-12-31T23:31:24.827Z,99.99
2018-12-31T23:32:05.152Z,99.99
2018-12-31T23:32:45.561Z,99.99
2018-12-31T23:33:25.950Z,99.99
2018-12-31T23:34:06.354Z,99.66
2018-12-31T23:34:46.752Z,99.99
2018-12-31T23:35:27.119Z,98.9
2018-12-31T23:36:07.508Z,98.9
2018-12-31T23:36:47.891Z,99.66
2018-12-31T23:37:28.348Z,99.95
2018-12-31T23:38:09.600Z,99.99
2018-12-31T23:38:50.012Z,99.99
2018-12-31T23:39:30.430Z,99.99
2018-12-31T23:40:10.844Z,99.99
2018-12-31T23:40:51.245Z,99.99
2018-12-31T23:41:31.607Z,99.99
